Time;durP1;ratioP1;P1;durP2;ratioP2;P2;SDS_P1;SDS_P2;PMS_P1;PMS_P2;Temp;Humidity;BMP_temperature;BMP_pressure;BME280_temperature;BME280_humidity;BME280_pressure;Samples;Min_cycle;Max_cycle;Signal;HPM_P1;HPM_P2
2022/03/02 00:01:53;;;;;;;17.20;6.20;;;;;2.84;97987.80;;;;110820;1248;41621;-66
2022/03/02 00:04:23;;;;;;;16.10;5.80;;;;;2.80;97987.80;;;;110878;1250;41261;-65
2022/03/02 00:06:52;;;;;;;16.70;6.50;;;;;2.80;97983.00;;;;110943;1250;41147;-65
2022/03/02 00:09:22;;;;;;;18.50;6.60;;;;;2.70;97983.00;;;;110735;1251;41779;-65
2022/03/02 00:11:53;;;;;;;16.80;5.70;;;;;2.70;97984.60;;;;110859;1250;41169;-67
2022/03/02 00:14:23;;;;;;;14.60;5.90;;;;;2.70;97976.20;;;;110799;1250;41891;-65
2022/03/02 00:16:53;;;;;;;15.10;5.50;;;;;2.70;97973.80;;;;110981;1250;41264;-65
2022/03/02 00:19:25;;;;;;;12.70;4.70;;;;;2.60;97968.80;;;;110633;1250;42345;-64
2022/03/02 00:21:55;;;;;;;12.10;5.00;;;;;2.60;97970.00;;;;110601;1251;41164;-66
2022/03/02 00:24:25;;;;;;;10.20;4.70;;;;;2.60;97965.60;;;;110928;1250;41436;-65
2022/03/02 00:26:56;;;;;;;24.00;5.00;;;;;2.60;97964.60;;;;110899;1250;41158;-65
2022/03/02 00:29:26;;;;;;;15.10;5.10;;;;;2.50;97960.00;;;;110787;1250;41151;-66
2022/03/02 00:31:56;;;;;;;14.60;5.70;;;;;2.50;97956.20;;;;110607;1250;41144;-65
2022/03/02 00:34:25;;;;;;;13.40;5.00;;;;;2.50;97955.00;;;;110713;1250;41166;-65
2022/03/02 00:36:55;;;;;;;12.60;4.70;;;;;2.42;97952.60;;;;110772;1250;42187;-65
2022/03/02 00:39:25;;;;;;;12.90;4.60;;;;;2.40;97950.60;;;;110665;1251;41275;-67
2022/03/02 00:41:55;;;;;;;11.30;4.40;;;;;2.40;97954.00;;;;110630;1251;41156;-65
2022/03/02 00:44:25;;;;;;;10.80;3.70;;;;;2.38;97950.60;;;;110578;1250;41366;-64
2022/03/02 00:46:55;;;;;;;10.80;4.40;;;;;2.30;97947.80;;;;110607;1250;41405;-63
2022/03/02 00:49:27;;;;;;;8.70;3.30;;;;;2.30;97942.80;;;;110657;1250;41263;-66
2022/03/02 00:51:58;;;;;;;8.80;3.60;;;;;2.30;97940.40;;;;110811;1251;41146;-65
2022/03/02 00:54:28;;;;;;;8.60;3.00;;;;;2.30;97938.80;;;;110558;1250;41619;-65
2022/03/02 00:56:58;;;;;;;10.60;3.70;;;;;2.20;97939.00;;;;110712;1250;41178;-65
2022/03/02 00:59:28;;;;;;;11.00;3.90;;;;;2.20;97939.60;;;;110911;1250;41254;-65
2022/03/02 01:01:58;;;;;;;10.50;4.60;;;;;2.20;97933.80;;;;110809;1250;41813;-65
2022/03/02 01:04:28;;;;;;;16.60;5.70;;;;;2.20;97929.80;;;;110654;1252;42447;-66
2022/03/02 01:06:58;;;;;;;18.50;5.60;;;;;2.20;97933.00;;;;110838;1250;41259;-67
2022/03/02 01:09:29;;;;;;;14.10;5.40;;;;;2.20;97927.20;;;;110628;1251;41153;-66
2022/03/02 01:11:59;;;;;;;;;;;;;2.20;97923.00;;;;110935;1250;41139;-66
2022/03/02 01:14:29;;;;;;;12.70;4.40;;;;;2.20;97921.60;;;;110901;1249;41557;-66
2022/03/02 01:16:59;;;;;;;10.30;3.80;;;;;2.12;97920.00;;;;110593;1251;41155;-66
2022/03/02 01:19:29;;;;;;;11.50;3.80;;;;;2.10;97917.60;;;;110730;1250;41616;-67
2022/03/02 01:22:00;;;;;;;13.20;4.60;;;;;2.10;97920.60;;;;111035;1247;41249;-66
2022/03/02 01:24:30;;;;;;;12.70;4.90;;;;;2.10;97919.40;;;;110754;1250;41269;-65
2022/03/02 01:27:03;;;;;;;13.30;5.00;;;;;2.10;97916.00;;;;110812;1250;41275;-66
2022/03/02 01:29:34;;;;;;;10.60;4.00;;;;;2.04;97918.20;;;;110758;1250;41165;-66
2022/03/02 01:32:07;;;;;;;12.20;4.10;;;;;2.00;97917.40;;;;110673;1250;41903;-65
2022/03/02 01:34:38;;;;;;;9.80;3.60;;;;;2.00;97917.20;;;;110643;1251;41155;-66
2022/03/02 01:37:08;;;;;;;;;;;;;1.96;97914.60;;;;110566;1252;41256;-66
2022/03/02 01:39:39;;;;;;;12.10;4.50;;;;;1.90;97912.60;;;;110775;1250;42375;-66
2022/03/02 01:42:10;;;;;;;14.20;4.40;;;;;1.90;97918.00;;;;110590;1250;41165;-66
2022/03/02 01:44:40;;;;;;;;;;;;;1.90;97908.60;;;;110751;1250;41424;-67
2022/03/02 01:47:10;;;;;;;11.90;4.70;;;;;1.90;97907.60;;;;110718;1250;41133;-65
2022/03/02 01:49:41;;;;;;;15.80;5.70;;;;;1.90;97902.80;;;;110698;1250;41358;-65
2022/03/02 01:52:12;;;;;;;13.90;5.70;;;;;1.90;97904.20;;;;110712;1250;41255;-63
2022/03/02 01:54:42;;;;;;;15.60;5.80;;;;;1.90;97899.60;;;;110690;1248;41257;-65
2022/03/02 01:57:14;;;;;;;11.80;4.40;;;;;1.88;97897.40;;;;110635;1252;41266;-66
2022/03/02 01:59:45;;;;;;;11.60;4.50;;;;;1.82;97887.60;;;;110744;1250;41146;-66
2022/03/02 02:02:16;;;;;;;10.80;4.50;;;;;1.80;97882.80;;;;110678;1250;41825;-66
2022/03/02 02:04:46;;;;;;;10.60;4.40;;;;;1.80;97888.00;;;;110864;1250;41624;-65
2022/03/02 02:07:16;;;;;;;10.90;3.80;;;;;1.80;97887.20;;;;110693;1250;41135;-64
2022/03/02 02:09:46;;;;;;;11.30;4.40;;;;;1.80;97885.20;;;;110819;1250;41526;-65
2022/03/02 02:12:17;;;;;;;9.60;3.90;;;;;1.78;97883.00;;;;110742;1251;41264;-65
2022/03/02 02:14:47;;;;;;;10.50;4.20;;;;;1.74;97884.40;;;;110837;1250;41152;-65
2022/03/02 02:17:17;;;;;;;10.70;3.70;;;;;1.70;97882.80;;;;110605;1250;41282;-65
2022/03/02 02:19:47;;;;;;;9.50;3.90;;;;;1.70;97883.80;;;;110856;1250;41902;-64
2022/03/02 02:22:17;;;;;;;8.30;3.30;;;;;1.70;97882.80;;;;110614;1251;41260;-65
2022/03/02 02:24:47;;;;;;;9.60;3.90;;;;;1.70;97881.80;;;;110464;1252;41647;-65
2022/03/02 02:27:18;;;;;;;9.70;4.40;;;;;1.70;97880.00;;;;110814;1250;41536;-66
2022/03/02 02:29:48;;;;;;;12.90;4.50;;;;;1.70;97878.60;;;;110697;1251;42167;-65
2022/03/02 02:32:19;;;;;;;11.80;4.50;;;;;1.76;97873.40;;;;110544;1251;42426;-65
2022/03/02 02:34:49;;;;;;;10.70;4.20;;;;;1.78;97873.00;;;;110595;1251;41167;-67
2022/03/02 02:37:19;;;;;;;9.80;4.00;;;;;1.80;97867.80;;;;110838;1250;41720;-65
2022/03/02 02:40:11;;;;;;;9.60;3.90;;;;;1.80;97863.00;;;;110770;1249;41666;-63
2022/03/02 02:42:44;;;;;;;12.30;3.50;;;;;1.74;97863.80;;;;110676;1250;41152;-65
2022/03/02 02:45:20;;;;;;;10.50;3.60;;;;;1.70;97858.20;;;;110448;1247;474239;-66
2022/03/02 02:47:55;;;;;;;8.30;3.60;;;;;1.70;97869.40;;;;110977;1248;42380;-67
2022/03/02 02:50:31;;;;;;;8.90;4.10;;;;;1.62;97861.60;;;;110709;1250;41900;-68
2022/03/02 02:53:04;;;;;;;12.40;4.40;;;;;1.50;97867.20;;;;110639;1251;41956;-66
2022/03/02 02:55:34;;;;;;;9.90;4.20;;;;;1.40;97869.00;;;;110541;1251;41226;-66
2022/03/02 02:58:05;;;;;;;9.40;4.40;;;;;1.40;97858.00;;;;110776;1251;41391;-65
2022/03/02 03:00:38;;;;;;;9.50;4.10;;;;;1.30;97859.80;;;;110754;1250;41165;-65
2022/03/02 03:03:08;;;;;;;9.50;4.20;;;;;1.20;97867.80;;;;110769;1250;41723;-63
2022/03/02 03:05:39;;;;;;;12.20;4.80;;;;;1.10;97862.80;;;;110665;1251;41521;-65
2022/03/02 03:08:10;;;;;;;9.70;4.40;;;;;1.00;97864.20;;;;110699;1250;41343;-65
2022/03/02 03:10:42;;;;;;;10.60;4.40;;;;;0.90;97865.20;;;;110660;1252;41155;-65
2022/03/02 03:13:14;;;;;;;8.60;4.10;;;;;0.80;97864.60;;;;110474;1253;42379;-66
2022/03/02 03:15:44;;;;;;;8.90;4.00;;;;;0.80;97859.40;;;;111007;1248;41162;-67
2022/03/02 03:18:14;;;;;;;10.30;4.20;;;;;0.80;97860.40;;;;110876;1248;42677;-67
2022/03/02 03:20:45;;;;;;;13.00;5.40;;;;;0.80;97858.80;;;;110854;1250;41154;-66
2022/03/02 03:23:15;;;;;;;15.50;5.80;;;;;0.72;97850.80;;;;110857;1251;41956;-66
2022/03/02 03:25:45;;;;;;;12.50;5.40;;;;;0.70;97853.80;;;;110909;1250;41710;-66
2022/03/02 03:28:15;;;;;;;11.30;4.60;;;;;0.70;97854.40;;;;110740;1251;41176;-66
2022/03/02 03:30:45;;;;;;;13.90;5.60;;;;;0.60;97847.80;;;;110917;1249;41190;-66
2022/03/02 03:33:15;;;;;;;11.20;5.00;;;;;0.60;97852.60;;;;110645;1250;41263;-67
2022/03/02 03:35:45;;;;;;;11.90;5.20;;;;;0.58;97845.40;;;;110734;1249;41832;-66
2022/03/02 03:38:14;;;;;;;12.90;4.90;;;;;0.54;97847.80;;;;110674;1251;41270;-66
2022/03/02 03:40:44;;;;;;;10.20;4.40;;;;;0.58;97844.40;;;;110631;1250;41642;-66
2022/03/02 03:43:14;;;;;;;10.30;4.10;;;;;0.60;97843.00;;;;110621;1251;41276;-66
2022/03/02 03:45:44;;;;;;;9.60;4.20;;;;;0.60;97846.00;;;;110646;1251;41321;-65
2022/03/02 03:48:14;;;;;;;9.70;4.30;;;;;0.60;97841.20;;;;110844;1250;41615;-64
2022/03/02 03:50:45;;;;;;;10.50;4.80;;;;;0.70;97844.40;;;;110847;1251;41136;-65
2022/03/02 03:53:14;;;;;;;12.20;4.50;;;;;0.70;97837.40;;;;110826;1250;41690;-64
2022/03/02 03:55:44;;;;;;;12.40;4.80;;;;;0.80;97834.40;;;;110816;1249;41823;-65
2022/03/02 03:58:14;;;;;;;13.10;5.10;;;;;0.80;97832.20;;;;110701;1250;41129;-65
2022/03/02 04:00:45;;;;;;;11.70;4.60;;;;;0.80;97826.40;;;;110547;1252;41167;-64
2022/03/02 04:03:15;;;;;;;10.80;4.60;;;;;0.80;97821.20;;;;110933;1248;41890;-65
2022/03/02 04:05:45;;;;;;;10.30;5.00;;;;;0.80;97816.00;;;;110793;1250;41627;-67
2022/03/02 04:08:15;;;;;;;11.00;5.10;;;;;0.80;97818.60;;;;111080;1248;42098;-65
2022/03/02 04:10:46;;;;;;;15.40;6.20;;;;;0.80;97816.40;;;;110707;1250;41773;-66
2022/03/02 04:13:15;;;;;;;13.40;5.20;;;;;0.80;97814.40;;;;110817;1250;41264;-65
2022/03/02 04:15:45;;;;;;;13.50;5.50;;;;;0.80;97810.80;;;;110707;1249;41259;-65
2022/03/02 04:18:15;;;;;;;13.00;4.90;;;;;0.80;97810.00;;;;110634;1250;41734;-65
2022/03/02 04:20:45;;;;;;;11.40;5.00;;;;;0.80;97812.20;;;;110872;1249;42221;-63
2022/03/02 04:23:14;;;;;;;11.50;4.70;;;;;0.72;97800.40;;;;110643;1250;41168;-64
2022/03/02 04:25:44;;;;;;;9.50;4.50;;;;;0.70;97803.40;;;;110814;1250;41261;-65
2022/03/02 04:28:14;;;;;;;10.80;4.40;;;;;0.70;97797.20;;;;110858;1250;41151;-66
2022/03/02 04:30:44;;;;;;;12.50;5.20;;;;;0.70;97796.40;;;;110611;1250;41607;-66
2022/03/02 04:33:14;;;;;;;10.10;4.60;;;;;0.68;97798.80;;;;110708;1251;42159;-66
2022/03/02 04:35:44;;;;;;;11.40;4.70;;;;;0.66;97797.20;;;;110763;1250;41716;-65
2022/03/02 04:38:14;;;;;;;10.90;4.30;;;;;0.68;97793.60;;;;110683;1250;41632;-64
2022/03/02 04:40:44;;;;;;;11.30;4.60;;;;;0.66;97793.60;;;;110837;1250;41269;-65
2022/03/02 04:43:14;;;;;;;12.10;5.10;;;;;0.68;97789.40;;;;110819;1250;41263;-64
2022/03/02 04:45:43;;;;;;;14.20;6.60;;;;;0.70;97786.00;;;;110663;1250;41135;-65
2022/03/02 04:48:13;;;;;;;16.00;7.20;;;;;0.68;97781.80;;;;110684;1250;41285;-65
2022/03/02 04:50:43;;;;;;;25.30;10.60;;;;;0.60;97784.40;;;;110895;1249;41440;-65
2022/03/02 04:53:16;;;;;;;24.30;11.30;;;;;0.60;97789.00;;;;110550;1252;43093;-63
2022/03/02 04:55:45;;;;;;;22.80;10.40;;;;;0.60;97781.00;;;;110797;1251;41215;-65
2022/03/02 04:58:15;;;;;;;17.90;8.00;;;;;0.60;97782.60;;;;110728;1250;41385;-66
2022/03/02 05:00:44;;;;;;;16.00;6.80;;;;;0.60;97776.00;;;;110783;1250;41153;-66
2022/03/02 05:03:14;;;;;;;15.00;6.20;;;;;0.60;97778.80;;;;110756;1250;41570;-64
2022/03/02 05:05:44;;;;;;;14.20;5.90;;;;;0.60;97778.40;;;;110651;1252;41402;-63
2022/03/02 05:08:14;;;;;;;12.10;5.00;;;;;0.60;97780.80;;;;110813;1250;41465;-66
2022/03/02 05:10:44;;;;;;;11.00;4.70;;;;;0.68;97783.00;;;;110602;1250;41406;-65
2022/03/02 05:13:13;;;;;;;12.10;5.30;;;;;0.68;97781.40;;;;110587;1251;41270;-64
2022/03/02 05:15:43;;;;;;;12.90;5.30;;;;;0.68;97780.00;;;;110807;1250;42378;-65
2022/03/02 05:18:12;;;;;;;11.60;5.40;;;;;0.70;97780.80;;;;110469;1253;41146;-66
2022/03/02 05:20:41;;;;;;;14.30;6.20;;;;;0.70;97780.00;;;;110609;1252;41622;-65
2022/03/02 05:23:10;;;;;;;16.10;7.00;;;;;0.70;97774.40;;;;110604;1252;41786;-66
2022/03/02 05:25:40;;;;;;;17.20;8.10;;;;;0.70;97777.00;;;;110771;1250;41144;-66
2022/03/02 05:28:09;;;;;;;14.10;6.90;;;;;0.70;97772.40;;;;110611;1251;41170;-66
2022/03/02 05:30:38;;;;;;;12.80;6.30;;;;;0.78;97780.00;;;;110716;1250;41823;-66
2022/03/02 05:33:08;;;;;;;15.50;6.70;;;;;0.80;97780.40;;;;110610;1252;41190;-65
2022/03/02 05:35:37;;;;;;;19.80;7.20;;;;;0.80;97782.40;;;;110637;1250;41839;-65
2022/03/02 05:38:07;;;;;;;16.40;7.60;;;;;0.80;97783.20;;;;110564;1252;41149;-65
2022/03/02 05:40:36;;;;;;;19.00;9.00;;;;;0.80;97783.60;;;;110621;1252;41378;-65
2022/03/02 05:43:05;;;;;;;30.20;10.60;;;;;0.80;97785.40;;;;110435;1251;41158;-65
2022/03/02 05:45:34;;;;;;;26.60;11.30;;;;;0.80;97781.00;;;;110605;1250;41283;-65
2022/03/02 05:48:04;;;;;;;30.30;12.00;;;;;0.82;97777.80;;;;110659;1252;41386;-65
2022/03/02 05:50:34;;;;;;;26.00;11.70;;;;;0.80;97776.60;;;;110708;1251;41340;-65
2022/03/02 05:53:07;;;;;;;30.20;11.40;;;;;0.80;97775.20;;;;110616;1253;41273;-64
2022/03/02 05:55:36;;;;;;;21.50;9.00;;;;;0.82;97775.20;;;;110761;1252;41761;-66
2022/03/02 05:58:05;;;;;;;19.20;7.60;;;;;0.82;97775.40;;;;110789;1250;41601;-63
2022/03/02 06:00:36;;;;;;;16.90;8.20;;;;;0.84;97777.40;;;;110789;1249;41203;-63
2022/03/02 06:03:05;;;;;;;22.20;8.30;;;;;0.86;97783.40;;;;110647;1250;41319;-64
2022/03/02 06:05:35;;;;;;;17.50;7.40;;;;;0.88;97788.40;;;;110631;1253;41178;-66
2022/03/02 06:08:07;;;;;;;16.70;7.40;;;;;0.90;97792.40;;;;110576;1252;41248;-65
2022/03/02 06:10:37;;;;;;;16.00;7.70;;;;;0.90;97794.80;;;;110610;1250;41252;-66
2022/03/02 06:13:07;;;;;;;17.40;7.30;;;;;0.90;97791.20;;;;110523;1252;43108;-67
2022/03/02 06:15:37;;;;;;;13.50;6.80;;;;;1.00;97795.00;;;;110856;1250;42184;-64
2022/03/02 06:18:07;;;;;;;16.00;6.70;;;;;1.00;97795.00;;;;110914;1250;42448;-65
2022/03/02 06:20:36;;;;;;;14.30;7.00;;;;;1.00;97793.80;;;;110603;1252;41753;-64
2022/03/02 06:23:06;;;;;;;17.10;7.20;;;;;1.00;97790.40;;;;110837;1251;41687;-64
2022/03/02 06:25:35;;;;;;;15.00;7.40;;;;;1.00;97794.60;;;;110768;1250;41180;-64
2022/03/02 06:28:04;;;;;;;15.80;7.50;;;;;1.10;97793.60;;;;110802;1250;41381;-64
2022/03/02 06:30:34;;;;;;;18.60;9.00;;;;;1.20;97791.80;;;;110967;1250;41266;-65
2022/03/02 06:33:03;;;;;;;21.70;9.00;;;;;1.30;97792.20;;;;110852;1251;41897;-64
2022/03/02 06:35:33;;;;;;;18.30;9.40;;;;;1.40;97791.80;;;;110917;1250;41150;-65
2022/03/02 06:38:02;;;;;;;16.00;7.30;;;;;1.40;97790.20;;;;110792;1250;42995;-64
2022/03/02 06:40:32;;;;;;;15.70;7.20;;;;;1.40;97789.40;;;;110799;1251;41267;-64
2022/03/02 06:43:14;;;;;;;14.60;6.20;;;;;1.30;97788.60;;;;110755;1251;41422;-67
2022/03/02 06:45:58;;;;;;;15.50;6.70;;;;;1.40;97786.60;;;;110735;1250;41698;-65
2022/03/02 06:48:36;;;;;;;19.00;6.70;;;;;1.48;97788.00;;;;110885;1250;41181;-64
2022/03/02 06:51:07;;;;;;;13.20;6.40;;;;;1.50;97786.00;;;;110636;1251;41267;-65
2022/03/02 06:53:37;;;;;;;12.60;5.90;;;;;1.62;97780.00;;;;110825;1251;41599;-65
2022/03/02 06:56:08;;;;;;;17.00;6.30;;;;;1.70;97782.00;;;;110877;1250;41149;-66
2022/03/02 06:58:42;;;;;;;13.20;6.30;;;;;1.90;97779.20;;;;110701;1250;41980;-66
2022/03/02 07:01:13;;;;;;;14.80;6.70;;;;;2.02;97782.60;;;;110755;1251;41632;-67
2022/03/02 07:03:47;;;;;;;14.10;6.10;;;;;2.14;97777.60;;;;110564;1252;41659;-64
2022/03/02 07:06:17;;;;;;;14.20;6.40;;;;;2.30;97777.40;;;;110590;1250;41325;-64
2022/03/02 07:08:51;;;;;;;12.50;5.80;;;;;2.52;97775.20;;;;110854;1250;41249;-64
2022/03/02 07:11:20;;;;;;;13.20;5.90;;;;;2.70;97772.80;;;;110882;1250;41672;-65
2022/03/02 07:13:51;;;;;;;15.50;6.40;;;;;2.90;97764.40;;;;110875;1250;41187;-70
2022/03/02 07:16:21;;;;;;;17.40;7.10;;;;;3.00;97769.80;;;;110746;1250;41277;-68
2022/03/02 07:18:51;;;;;;;14.40;6.60;;;;;3.10;97761.80;;;;110667;1251;41267;-66
2022/03/02 07:21:25;;;;;;;17.60;6.20;;;;;3.30;97760.80;;;;110636;1250;41738;-68
2022/03/02 07:24:30;;;;;;;13.70;5.30;;;;;3.58;97760.20;;;;110657;1251;41898;-66
2022/03/02 07:27:02;;;;;;;15.80;6.20;;;;;3.96;97752.40;;;;110309;1256;41190;-67
2022/03/02 07:29:33;;;;;;;;;;;;;4.40;97748.80;;;;110126;1256;41155;-66
2022/03/02 07:32:04;;;;;;;13.50;5.70;;;;;4.70;97736.20;;;;110243;1257;41273;-66
2022/03/02 07:34:34;;;;;;;12.30;5.70;;;;;5.06;97733.60;;;;110237;1256;41856;-67
2022/03/02 07:37:03;;;;;;;11.40;4.50;;;;;5.40;97727.20;;;;110294;1256;41270;-65
2022/03/02 07:39:32;;;;;;;12.80;5.20;;;;;5.78;97727.20;;;;110364;1256;41128;-66
2022/03/02 07:42:04;;;;;;;12.60;5.30;;;;;5.84;97724.00;;;;110415;1256;41284;-66
2022/03/02 07:44:34;;;;;;;10.90;4.10;;;;;6.10;97719.60;;;;110167;1256;41194;-66
2022/03/02 07:47:04;;;;;;;10.40;4.20;;;;;6.40;97714.80;;;;110101;1257;41283;-66
2022/03/02 07:49:34;;;;;;;9.40;3.80;;;;;6.76;97711.40;;;;110379;1256;41652;-66
2022/03/02 07:52:07;;;;;;;8.10;3.10;;;;;7.08;97709.40;;;;110378;1255;41172;-66
2022/03/02 07:54:39;;;;;;;9.00;3.40;;;;;7.42;97700.00;;;;110434;1256;41269;-68
2022/03/02 07:57:12;;;;;;;8.60;3.70;;;;;7.78;97707.40;;;;110260;1256;42151;-68
2022/03/02 07:59:43;;;;;;;7.90;3.20;;;;;7.76;97702.40;;;;110228;1256;41173;-68
2022/03/02 08:02:15;;;;;;;9.30;3.70;;;;;7.92;97694.40;;;;110278;1256;41402;-67
2022/03/02 08:04:45;;;;;;;9.00;3.40;;;;;8.20;97698.20;;;;110625;1252;42293;-66
2022/03/02 08:07:15;;;;;;;7.60;3.10;;;;;8.28;97695.20;;;;110598;1253;41160;-67
2022/03/02 08:09:45;;;;;;;9.20;3.70;;;;;8.28;97693.20;;;;110565;1251;41159;-65
2022/03/02 08:12:19;;;;;;;8.20;3.30;;;;;8.02;97687.80;;;;110775;1251;41143;-66
2022/03/02 08:14:49;;;;;;;7.30;3.00;;;;;7.84;97682.60;;;;110598;1250;41176;-67
2022/03/02 08:17:19;;;;;;;;;;;;;7.80;97682.60;;;;110646;1253;41263;-64
2022/03/02 08:19:48;;;;;;;6.00;2.70;;;;;8.02;97681.40;;;;110743;1252;41307;-66
2022/03/02 08:22:20;;;;;;;6.40;2.40;;;;;8.40;97675.60;;;;110838;1250;41612;-67
2022/03/02 08:25:12;;;;;;;6.50;2.70;;;;;8.82;97679.60;;;;110825;1250;41157;-67
2022/03/02 08:27:43;;;;;;;7.30;2.70;;;;;9.38;97676.00;;;;110611;1250;41494;-66
2022/03/02 08:30:12;;;;;;;;;;;;;10.04;97672.00;;;;110819;1250;41153;-66
2022/03/02 08:32:44;;;;;;;6.40;3.00;;;;;10.62;97669.80;;;;110732;1251;43058;-66
2022/03/02 08:35:14;;;;;;;7.90;3.10;;;;;11.26;97662.20;;;;110582;1252;41823;-67
2022/03/02 08:37:43;;;;;;;9.10;3.10;;;;;11.80;97663.40;;;;110370;1252;41308;-68
2022/03/02 08:40:13;;;;;;;7.00;3.00;;;;;11.54;97661.80;;;;110661;1252;41159;-68
2022/03/02 08:42:44;;;;;;;7.20;2.70;;;;;11.30;97657.80;;;;110742;1249;41149;-68
2022/03/02 08:45:13;;;;;;;8.10;3.10;;;;;11.70;97656.60;;;;110515;1252;41264;-68
2022/03/02 08:47:42;;;;;;;7.90;2.90;;;;;11.64;97653.60;;;;110562;1251;41252;-68
2022/03/02 08:50:11;;;;;;;7.30;3.00;;;;;11.42;97649.20;;;;110627;1250;41177;-68
2022/03/02 08:52:41;;;;;;;7.30;2.80;;;;;11.18;97647.80;;;;110758;1250;41262;-66
2022/03/02 08:55:11;;;;;;;7.90;3.00;;;;;11.66;97648.40;;;;110860;1251;41265;-65
2022/03/02 08:57:42;;;;;;;8.10;3.00;;;;;11.52;97644.80;;;;110694;1251;41149;-66
2022/03/02 09:00:14;;;;;;;7.90;3.20;;;;;11.52;97647.20;;;;110588;1252;41180;-66
2022/03/02 09:02:47;;;;;;;8.80;3.10;;;;;11.60;97644.80;;;;110619;1252;41788;-69
2022/03/02 09:05:16;;;;;;;8.20;3.10;;;;;11.80;97644.60;;;;110763;1252;41613;-69
2022/03/02 09:07:46;;;;;;;7.80;3.10;;;;;11.82;97637.40;;;;110615;1251;41169;-67
2022/03/02 09:10:15;;;;;;;6.60;2.50;;;;;11.74;97640.80;;;;110795;1251;41553;-68
2022/03/02 09:12:45;;;;;;;5.70;2.30;;;;;12.00;97631.80;;;;110787;1251;41305;-68
2022/03/02 09:15:19;;;;;;;6.50;2.60;;;;;12.28;97634.60;;;;110722;1250;41827;-67
2022/03/02 09:17:55;;;;;;;7.70;2.50;;;;;11.52;97629.80;;;;110732;1252;41164;-68
2022/03/02 09:20:30;;;;;;;7.00;3.00;;;;;11.00;97635.60;;;;110754;1250;41158;-68
2022/03/02 09:23:06;;;;;;;7.20;2.90;;;;;11.00;97641.60;;;;110739;1250;41791;-70
2022/03/02 09:25:48;;;;;;;7.80;3.30;;;;;11.00;97640.00;;;;110537;1250;41604;-71
2022/03/02 09:28:19;;;;;;;9.70;4.00;;;;;9.68;97641.80;;;;110652;1251;41136;-66
2022/03/02 09:30:49;;;;;;;9.50;3.30;;;;;8.50;97647.20;;;;110597;1251;41269;-65
2022/03/02 09:33:21;;;;;;;7.70;2.90;;;;;8.72;97640.20;;;;110654;1250;41193;-64
2022/03/02 09:35:56;;;;;;;7.40;3.10;;;;;8.64;97637.60;;;;110650;1251;41620;-67
2022/03/02 09:38:27;;;;;;;6.60;2.70;;;;;8.40;97638.00;;;;110644;1252;41477;-71
2022/03/02 09:41:09;;;;;;;6.00;2.50;;;;;8.28;97637.80;;;;111097;1250;41353;-70
2022/03/02 09:43:42;;;;;;;8.30;2.90;;;;;8.60;97630.60;;;;110907;1250;42377;-71
2022/03/02 09:46:16;;;;;;;7.00;2.60;;;;;9.84;97614.60;;;;110997;1250;41137;-71
2022/03/02 09:48:49;;;;;;;5.20;2.20;;;;;12.48;97591.20;;;;110833;1250;41158;-71
2022/03/02 09:51:23;;;;;;;5.60;2.40;;;;;16.12;97569.60;;;;110830;1250;41146;-71
2022/03/02 09:53:53;;;;;;;8.90;4.00;;;;;19.60;97549.00;;;;110771;1250;41156;-71
2022/03/02 09:56:23;;;;;;;7.30;3.00;;;;;18.46;97567.20;;;;110645;1250;41219;-68
2022/03/02 09:58:53;;;;;;;10.80;3.00;;;;;20.00;97574.60;;;;110669;1250;42217;-66
2022/03/02 10:01:24;;;;;;;10.30;2.70;;;;;18.66;97585.40;;;;110624;1250;41320;-67
2022/03/02 10:03:54;;;;;;;9.20;4.10;;;;;17.60;97588.00;;;;110640;1252;41354;-66
2022/03/02 10:06:26;;;;;;;9.10;3.80;;;;;13.74;97600.60;;;;110602;1250;41450;-68
2022/03/02 10:08:56;;;;;;;7.90;3.10;;;;;11.88;97605.60;;;;110739;1250;41636;-65
2022/03/02 10:11:30;;;;;;;6.70;2.80;;;;;10.68;97608.20;;;;110676;1250;41897;-67
2022/03/02 10:13:59;;;;;;;7.10;2.60;;;;;9.88;97604.80;;;;110659;1250;42378;-68
2022/03/02 10:16:29;;;;;;;4.90;2.00;;;;;10.18;97607.00;;;;110578;1253;42378;-72
2022/03/02 10:19:02;;;;;;;5.90;2.30;;;;;10.86;97601.40;;;;110571;1252;41159;-72
2022/03/02 10:21:40;;;;;;;6.30;2.40;;;;;11.24;97596.20;;;;110645;1252;41160;-71
2022/03/02 10:24:14;;;;;;;6.50;2.30;;;;;9.60;97601.00;;;;110838;1250;41164;-71
2022/03/02 10:26:51;;;;;;;5.80;2.20;;;;;9.50;97593.20;;;;110619;1252;41155;-72
2022/03/02 10:29:31;;;;;;;5.30;2.10;;;;;9.96;97585.20;;;;110607;1253;41270;-71
2022/03/02 10:32:08;;;;;;;5.10;2.00;;;;;10.14;97569.80;;;;110644;1252;41196;-72
2022/03/02 10:34:50;;;;;;;6.30;2.40;;;;;10.40;97568.20;;;;110527;1253;41143;-71
2022/03/02 10:37:19;;;;;;;8.10;3.30;;;;;10.20;97566.60;;;;110843;1250;41189;-70
2022/03/02 10:39:49;;;;;;;7.10;2.90;;;;;9.06;97563.40;;;;110647;1250;41158;-70
2022/03/02 10:42:25;;;;;;;9.70;2.90;;;;;9.22;97554.60;;;;110755;1250;41151;-72
2022/03/02 10:45:07;;;;;;;8.00;3.30;;;;;9.04;97555.60;;;;110555;1252;42525;-72
2022/03/02 10:48:01;;;;;;;6.70;2.50;;;;;8.04;97552.60;;;;110768;1250;41602;-71
2022/03/02 10:50:36;;;;;;;9.00;2.70;;;;;8.78;97547.60;;;;110370;1254;41172;-69
2022/03/02 10:53:11;;;;;;;6.50;2.60;;;;;9.10;97541.20;;;;110502;1253;41266;-67
2022/03/02 10:55:43;;;;;;;9.10;2.90;;;;;8.90;97535.20;;;;110612;1252;41995;-68
2022/03/02 10:58:17;;;;;;;7.90;3.10;;;;;9.36;97533.40;;;;110610;1252;41340;-67
2022/03/02 11:00:47;;;;;;;7.10;3.00;;;;;9.04;97524.40;;;;110623;1252;41943;-67
2022/03/02 11:03:17;;;;;;;6.80;2.80;;;;;9.60;97517.20;;;;110843;1250;41157;-68
2022/03/02 11:05:46;;;;;;;7.30;2.80;;;;;10.08;97516.80;;;;110655;1250;42149;-68
2022/03/02 11:08:17;;;;;;;7.40;2.80;;;;;10.42;97510.60;;;;110819;1250;41235;-68
2022/03/02 11:10:48;;;;;;;10.90;2.70;;;;;10.70;97509.20;;;;110679;1253;41257;-71
2022/03/02 11:13:22;;;;;;;6.00;2.40;;;;;10.60;97503.00;;;;110690;1250;41436;-70
2022/03/02 11:15:54;;;;;;;6.70;2.60;;;;;10.80;97499.80;;;;110681;1253;41173;-70
2022/03/02 11:18:49;;;;;;;9.00;3.00;;;;;10.90;97498.40;;;;110807;1252;42579;-73
2022/03/02 11:21:30;;;;;;;7.30;2.40;;;;;10.50;97496.60;;;;110652;1252;41270;-71
2022/03/02 11:24:05;;;;;;;6.50;2.40;;;;;10.48;97494.00;;;;110588;1252;42161;-67
2022/03/02 11:26:39;;;;;;;6.50;2.60;;;;;10.52;97493.80;;;;110834;1250;41153;-67
2022/03/02 11:29:14;;;;;;;9.90;3.20;;;;;10.20;97496.60;;;;110791;1252;41160;-67
2022/03/02 11:31:50;;;;;;;7.60;2.90;;;;;9.60;97493.00;;;;110609;1252;41975;-68
2022/03/02 11:34:26;;;;;;;7.90;2.40;;;;;9.24;97484.40;;;;110866;1250;42198;-65
2022/03/02 11:37:01;;;;;;;5.90;2.30;;;;;9.20;97483.20;;;;110641;1252;42086;-66
2022/03/02 11:39:30;;;;;;;4.40;2.00;;;;;9.14;97478.20;;;;110842;1250;41899;-65
2022/03/02 11:42:04;;;;;;;8.30;2.70;;;;;9.52;97469.00;;;;110778;1250;41423;-68
2022/03/02 11:44:41;;;;;;;7.30;2.60;;;;;9.86;97464.20;;;;110651;1250;41566;-68
2022/03/02 11:47:14;;;;;;;5.90;2.20;;;;;10.32;97459.60;;;;110859;1250;41196;-68
2022/03/02 11:49:50;;;;;;;4.40;2.00;;;;;10.74;97459.60;;;;110627;1252;42188;-72
2022/03/02 11:52:33;;;;;;;7.40;1.80;;;;;11.32;97452.40;;;;110756;1252;41320;-71
2022/03/02 11:55:09;;;;;;;4.20;1.70;;;;;11.82;97445.20;;;;110830;1250;41558;-70
2022/03/02 11:57:49;;;;;;;4.90;2.00;;;;;12.24;97434.00;;;;110662;1250;41638;-71
2022/03/02 12:00:20;;;;;;;4.10;1.80;;;;;12.64;97428.20;;;;110846;1250;41955;-70
2022/03/02 12:02:53;;;;;;;4.20;1.90;;;;;13.10;97425.60;;;;110801;1252;41172;-71
2022/03/02 12:05:27;;;;;;;3.60;1.80;;;;;13.62;97420.40;;;;110783;1251;42540;-69
2022/03/02 12:08:02;;;;;;;5.60;1.80;;;;;14.54;97414.40;;;;110785;1250;41148;-68
2022/03/02 12:10:37;;;;;;;3.00;1.70;;;;;15.40;97406.00;;;;110612;1252;41424;-69
2022/03/02 12:13:07;;;;;;;2.60;1.40;;;;;16.88;97403.40;;;;110552;1252;41941;-71
2022/03/02 12:15:45;;;;;;;4.20;1.80;;;;;17.00;97397.40;;;;110785;1250;41165;-72
2022/03/02 12:18:16;;;;;;;3.50;1.70;;;;;15.54;97386.00;;;;110746;1250;41386;-71
2022/03/02 12:20:49;;;;;;;3.10;1.70;;;;;15.40;97385.60;;;;110979;1250;41148;-70
2022/03/02 12:23:23;;;;;;;5.00;1.80;;;;;15.36;97389.20;;;;110703;1250;41178;-72
2022/03/02 12:25:53;;;;;;;3.40;1.50;;;;;16.16;97387.60;;;;110615;1253;41181;-69
2022/03/02 12:28:23;;;;;;;5.90;2.00;;;;;16.70;97382.60;;;;110930;1250;41145;-68
2022/03/02 12:30:53;;;;;;;4.50;1.70;;;;;13.88;97395.40;;;;110903;1250;41171;-67
2022/03/02 12:33:23;;;;;;;5.20;2.10;;;;;14.40;97389.40;;;;110705;1252;42246;-68